sensor_id;sensor_type;location;lat;lon;timestamp;P1;durP1;ratioP1;P2;durP2;ratioP2
52057;SDS011;38063;53.210;6.504;2024-02-26T00:00:38;31.55;;;13.93;;
52057;SDS011;38063;53.210;6.504;2024-02-26T00:03:04;25.30;;;13.45;;
52057;SDS011;38063;53.210;6.504;2024-02-26T00:05:29;29.27;;;14.05;;
52057;SDS011;38063;53.210;6.504;2024-02-26T00:07:56;25.55;;;13.23;;
52057;SDS011;38063;53.210;6.504;2024-02-26T00:10:22;27.77;;;14.05;;
52057;SDS011;38063;53.210;6.504;2024-02-26T00:12:47;27.55;;;14.50;;
52057;SDS011;38063;53.210;6.504;2024-02-26T00:15:13;26.80;;;14.07;;
52057;SDS011;38063;53.210;6.504;2024-02-26T00:17:39;25.48;;;13.13;;
52057;SDS011;38063;53.210;6.504;2024-02-26T00:20:05;26.65;;;14.13;;
52057;SDS011;38063;53.210;6.504;2024-02-26T00:22:34;27.15;;;13.75;;
52057;SDS011;38063;53.210;6.504;2024-02-26T00:25:00;24.77;;;13.65;;
52057;SDS011;38063;53.210;6.504;2024-02-26T00:27:26;21.75;;;12.20;;
52057;SDS011;38063;53.210;6.504;2024-02-26T00:29:51;24.55;;;13.05;;
52057;SDS011;38063;53.210;6.504;2024-02-26T00:32:17;26.05;;;13.10;;
52057;SDS011;38063;53.210;6.504;2024-02-26T00:34:43;22.70;;;13.27;;
52057;SDS011;38063;53.210;6.504;2024-02-26T00:37:09;24.92;;;13.18;;
52057;SDS011;38063;53.210;6.504;2024-02-26T00:39:34;27.35;;;13.38;;
52057;SDS011;38063;53.210;6.504;2024-02-26T00:42:00;24.17;;;13.10;;
52057;SDS011;38063;53.210;6.504;2024-02-26T00:44:26;22.98;;;11.85;;
52057;SDS011;38063;53.210;6.504;2024-02-26T00:46:51;20.50;;;12.60;;
52057;SDS011;38063;53.210;6.504;2024-02-26T00:49:17;23.77;;;11.77;;
52057;SDS011;38063;53.210;6.504;2024-02-26T00:51:42;22.38;;;11.90;;
52057;SDS011;38063;53.210;6.504;2024-02-26T00:54:08;22.35;;;12.48;;
52057;SDS011;38063;53.210;6.504;2024-02-26T00:56:34;21.38;;;11.45;;
52057;SDS011;38063;53.210;6.504;2024-02-26T00:58:59;21.52;;;11.20;;
52057;SDS011;38063;53.210;6.504;2024-02-26T01:01:25;19.65;;;11.65;;
52057;SDS011;38063;53.210;6.504;2024-02-26T01:03:51;19.83;;;11.18;;
52057;SDS011;38063;53.210;6.504;2024-02-26T01:06:16;22.20;;;12.48;;
52057;SDS011;38063;53.210;6.504;2024-02-26T01:08:42;17.52;;;10.52;;
52057;SDS011;38063;53.210;6.504;2024-02-26T01:11:08;21.60;;;12.00;;
52057;SDS011;38063;53.210;6.504;2024-02-26T01:13:33;20.50;;;11.68;;
52057;SDS011;38063;53.210;6.504;2024-02-26T01:15:59;17.95;;;9.40;;
52057;SDS011;38063;53.210;6.504;2024-02-26T01:18:26;18.25;;;10.35;;
52057;SDS011;38063;53.210;6.504;2024-02-26T01:20:52;16.23;;;9.82;;
52057;SDS011;38063;53.210;6.504;2024-02-26T01:23:19;14.55;;;9.23;;
52057;SDS011;38063;53.210;6.504;2024-02-26T01:25:45;14.80;;;8.65;;
52057;SDS011;38063;53.210;6.504;2024-02-26T01:28:11;15.45;;;9.63;;
52057;SDS011;38063;53.210;6.504;2024-02-26T01:30:37;14.82;;;8.65;;
52057;SDS011;38063;53.210;6.504;2024-02-26T01:33:02;15.25;;;8.52;;
52057;SDS011;38063;53.210;6.504;2024-02-26T01:35:28;12.77;;;8.00;;
52057;SDS011;38063;53.210;6.504;2024-02-26T01:37:55;12.43;;;7.63;;
52057;SDS011;38063;53.210;6.504;2024-02-26T01:40:21;11.82;;;7.20;;
52057;SDS011;38063;53.210;6.504;2024-02-26T01:42:47;15.30;;;8.00;;
52057;SDS011;38063;53.210;6.504;2024-02-26T01:45:16;12.43;;;7.10;;
52057;SDS011;38063;53.210;6.504;2024-02-26T01:47:51;11.65;;;7.28;;
52057;SDS011;38063;53.210;6.504;2024-02-26T01:50:18;12.05;;;7.85;;
52057;SDS011;38063;53.210;6.504;2024-02-26T01:52:49;13.95;;;8.63;;
52057;SDS011;38063;53.210;6.504;2024-02-26T01:55:16;12.95;;;7.75;;
52057;SDS011;38063;53.210;6.504;2024-02-26T01:57:43;12.98;;;8.40;;
52057;SDS011;38063;53.210;6.504;2024-02-26T02:00:11;11.05;;;6.93;;
52057;SDS011;38063;53.210;6.504;2024-02-26T02:02:38;10.23;;;6.72;;
52057;SDS011;38063;53.210;6.504;2024-02-26T02:05:05;12.20;;;7.65;;
52057;SDS011;38063;53.210;6.504;2024-02-26T02:07:31;10.68;;;6.47;;
52057;SDS011;38063;53.210;6.504;2024-02-26T02:09:57;11.48;;;7.05;;
52057;SDS011;38063;53.210;6.504;2024-02-26T02:12:23;10.80;;;7.07;;
52057;SDS011;38063;53.210;6.504;2024-02-26T02:14:49;10.63;;;6.90;;
52057;SDS011;38063;53.210;6.504;2024-02-26T02:17:15;10.48;;;6.90;;
52057;SDS011;38063;53.210;6.504;2024-02-26T02:19:41;10.43;;;6.68;;
52057;SDS011;38063;53.210;6.504;2024-02-26T02:22:07;8.85;;;6.03;;
52057;SDS011;38063;53.210;6.504;2024-02-26T02:24:32;10.38;;;6.43;;
52057;SDS011;38063;53.210;6.504;2024-02-26T02:26:58;10.73;;;6.65;;
52057;SDS011;38063;53.210;6.504;2024-02-26T02:29:24;10.75;;;7.07;;
52057;SDS011;38063;53.210;6.504;2024-02-26T02:31:50;10.65;;;6.68;;
52057;SDS011;38063;53.210;6.504;2024-02-26T02:34:15;11.38;;;7.18;;
52057;SDS011;38063;53.210;6.504;2024-02-26T02:36:48;14.32;;;6.85;;
52057;SDS011;38063;53.210;6.504;2024-02-26T02:39:17;10.98;;;5.90;;
52057;SDS011;38063;53.210;6.504;2024-02-26T02:41:43;10.80;;;6.13;;
52057;SDS011;38063;53.210;6.504;2024-02-26T02:44:08;10.30;;;5.97;;
52057;SDS011;38063;53.210;6.504;2024-02-26T02:46:34;12.73;;;6.68;;
52057;SDS011;38063;53.210;6.504;2024-02-26T02:49:00;10.48;;;6.15;;
52057;SDS011;38063;53.210;6.504;2024-02-26T02:51:26;11.45;;;6.07;;
52057;SDS011;38063;53.210;6.504;2024-02-26T02:53:52;9.30;;;6.15;;
52057;SDS011;38063;53.210;6.504;2024-02-26T02:56:17;12.90;;;5.90;;
52057;SDS011;38063;53.210;6.504;2024-02-26T02:58:43;8.93;;;5.82;;
52057;SDS011;38063;53.210;6.504;2024-02-26T03:01:09;13.43;;;6.20;;
52057;SDS011;38063;53.210;6.504;2024-02-26T03:03:35;10.52;;;5.72;;
52057;SDS011;38063;53.210;6.504;2024-02-26T03:06:02;11.85;;;6.07;;
52057;SDS011;38063;53.210;6.504;2024-02-26T03:08:29;8.15;;;5.30;;
52057;SDS011;38063;53.210;6.504;2024-02-26T03:10:54;9.80;;;5.72;;
52057;SDS011;38063;53.210;6.504;2024-02-26T03:13:20;7.38;;;5.10;;
52057;SDS011;38063;53.210;6.504;2024-02-26T03:15:46;8.95;;;5.40;;
52057;SDS011;38063;53.210;6.504;2024-02-26T03:18:12;9.55;;;4.97;;
52057;SDS011;38063;53.210;6.504;2024-02-26T03:20:37;8.10;;;4.93;;
52057;SDS011;38063;53.210;6.504;2024-02-26T03:23:03;8.15;;;4.88;;
52057;SDS011;38063;53.210;6.504;2024-02-26T03:25:29;8.55;;;4.93;;
52057;SDS011;38063;53.210;6.504;2024-02-26T03:27:55;7.20;;;4.50;;
52057;SDS011;38063;53.210;6.504;2024-02-26T03:30:20;8.90;;;4.75;;
52057;SDS011;38063;53.210;6.504;2024-02-26T03:32:46;7.95;;;5.30;;
52057;SDS011;38063;53.210;6.504;2024-02-26T03:35:12;8.00;;;5.03;;
52057;SDS011;38063;53.210;6.504;2024-02-26T03:37:38;8.93;;;5.28;;
52057;SDS011;38063;53.210;6.504;2024-02-26T03:40:04;7.13;;;5.03;;
52057;SDS011;38063;53.210;6.504;2024-02-26T03:42:31;8.98;;;5.25;;
52057;SDS011;38063;53.210;6.504;2024-02-26T03:44:56;8.30;;;4.50;;
52057;SDS011;38063;53.210;6.504;2024-02-26T03:47:22;7.35;;;5.30;;
52057;SDS011;38063;53.210;6.504;2024-02-26T03:49:48;10.38;;;4.97;;
52057;SDS011;38063;53.210;6.504;2024-02-26T03:52:13;14.40;;;4.88;;
52057;SDS011;38063;53.210;6.504;2024-02-26T03:54:40;9.07;;;4.70;;
52057;SDS011;38063;53.210;6.504;2024-02-26T03:57:05;8.05;;;4.20;;
52057;SDS011;38063;53.210;6.504;2024-02-26T03:59:31;9.15;;;4.68;;
52057;SDS011;38063;53.210;6.504;2024-02-26T04:01:57;9.73;;;4.70;;
52057;SDS011;38063;53.210;6.504;2024-02-26T04:04:22;8.65;;;4.70;;
52057;SDS011;38063;53.210;6.504;2024-02-26T04:06:48;7.90;;;4.72;;
52057;SDS011;38063;53.210;6.504;2024-02-26T04:09:14;7.35;;;4.47;;
52057;SDS011;38063;53.210;6.504;2024-02-26T04:11:40;9.52;;;4.88;;
52057;SDS011;38063;53.210;6.504;2024-02-26T04:14:05;11.45;;;4.80;;
52057;SDS011;38063;53.210;6.504;2024-02-26T04:16:33;10.30;;;4.45;;
52057;SDS011;38063;53.210;6.504;2024-02-26T04:19:00;7.97;;;4.53;;
52057;SDS011;38063;53.210;6.504;2024-02-26T04:21:26;10.85;;;5.15;;
52057;SDS011;38063;53.210;6.504;2024-02-26T04:23:52;7.22;;;4.70;;
52057;SDS011;38063;53.210;6.504;2024-02-26T04:26:20;10.35;;;4.70;;
52057;SDS011;38063;53.210;6.504;2024-02-26T04:28:46;8.73;;;4.53;;
52057;SDS011;38063;53.210;6.504;2024-02-26T04:31:12;9.80;;;4.63;;
52057;SDS011;38063;53.210;6.504;2024-02-26T04:33:38;7.28;;;4.60;;
52057;SDS011;38063;53.210;6.504;2024-02-26T04:36:03;7.25;;;4.05;;
52057;SDS011;38063;53.210;6.504;2024-02-26T04:38:29;8.45;;;4.65;;
52057;SDS011;38063;53.210;6.504;2024-02-26T04:40:55;5.65;;;3.63;;
52057;SDS011;38063;53.210;6.504;2024-02-26T04:43:21;8.75;;;4.28;;
52057;SDS011;38063;53.210;6.504;2024-02-26T04:45:46;8.18;;;3.83;;
52057;SDS011;38063;53.210;6.504;2024-02-26T04:48:13;6.90;;;4.00;;
52057;SDS011;38063;53.210;6.504;2024-02-26T04:50:38;8.93;;;4.03;;
52057;SDS011;38063;53.210;6.504;2024-02-26T04:53:04;9.52;;;4.10;;
52057;SDS011;38063;53.210;6.504;2024-02-26T04:55:30;5.55;;;3.80;;
52057;SDS011;38063;53.210;6.504;2024-02-26T04:57:55;7.32;;;3.70;;
52057;SDS011;38063;53.210;6.504;2024-02-26T05:00:21;5.72;;;3.92;;
52057;SDS011;38063;53.210;6.504;2024-02-26T05:02:46;7.20;;;3.03;;
52057;SDS011;38063;53.210;6.504;2024-02-26T05:05:13;6.85;;;4.10;;
52057;SDS011;38063;53.210;6.504;2024-02-26T05:07:39;7.63;;;4.15;;
52057;SDS011;38063;53.210;6.504;2024-02-26T05:10:08;8.57;;;4.00;;
52057;SDS011;38063;53.210;6.504;2024-02-26T05:12:34;5.65;;;3.30;;
52057;SDS011;38063;53.210;6.504;2024-02-26T05:15:01;11.10;;;3.78;;
52057;SDS011;38063;53.210;6.504;2024-02-26T05:17:27;5.28;;;3.65;;
52057;SDS011;38063;53.210;6.504;2024-02-26T05:19:53;6.45;;;3.47;;
52057;SDS011;38063;53.210;6.504;2024-02-26T05:22:18;4.70;;;3.50;;
52057;SDS011;38063;53.210;6.504;2024-02-26T05:24:45;5.40;;;3.45;;
52057;SDS011;38063;53.210;6.504;2024-02-26T05:27:10;6.47;;;3.03;;
52057;SDS011;38063;53.210;6.504;2024-02-26T05:29:37;4.40;;;3.20;;
52057;SDS011;38063;53.210;6.504;2024-02-26T05:32:03;6.40;;;3.03;;
52057;SDS011;38063;53.210;6.504;2024-02-26T05:34:30;5.25;;;3.22;;
52057;SDS011;38063;53.210;6.504;2024-02-26T05:36:56;5.38;;;3.17;;
52057;SDS011;38063;53.210;6.504;2024-02-26T05:39:22;5.32;;;3.33;;
52057;SDS011;38063;53.210;6.504;2024-02-26T05:41:47;4.07;;;2.97;;
52057;SDS011;38063;53.210;6.504;2024-02-26T05:44:14;6.05;;;3.10;;
52057;SDS011;38063;53.210;6.504;2024-02-26T05:46:41;4.00;;;2.60;;
52057;SDS011;38063;53.210;6.504;2024-02-26T05:49:07;4.85;;;2.92;;
52057;SDS011;38063;53.210;6.504;2024-02-26T05:51:33;4.82;;;2.97;;
52057;SDS011;38063;53.210;6.504;2024-02-26T05:53:58;3.80;;;2.55;;
52057;SDS011;38063;53.210;6.504;2024-02-26T05:56:24;4.53;;;2.47;;
52057;SDS011;38063;53.210;6.504;2024-02-26T05:58:50;3.65;;;2.65;;
52057;SDS011;38063;53.210;6.504;2024-02-26T06:01:16;4.13;;;2.58;;
52057;SDS011;38063;53.210;6.504;2024-02-26T06:03:42;5.47;;;2.63;;
52057;SDS011;38063;53.210;6.504;2024-02-26T06:06:09;4.60;;;2.60;;
52057;SDS011;38063;53.210;6.504;2024-02-26T06:08:35;4.07;;;2.20;;
52057;SDS011;38063;53.210;6.504;2024-02-26T06:11:04;5.45;;;2.78;;
52057;SDS011;38063;53.210;6.504;2024-02-26T06:13:31;4.13;;;2.55;;
52057;SDS011;38063;53.210;6.504;2024-02-26T06:15:57;3.42;;;2.22;;
52057;SDS011;38063;53.210;6.504;2024-02-26T06:18:23;5.85;;;2.53;;
52057;SDS011;38063;53.210;6.504;2024-02-26T06:20:48;5.07;;;2.42;;
52057;SDS011;38063;53.210;6.504;2024-02-26T06:23:14;3.80;;;2.78;;
52057;SDS011;38063;53.210;6.504;2024-02-26T06:25:41;3.30;;;2.35;;
52057;SDS011;38063;53.210;6.504;2024-02-26T06:28:07;4.05;;;2.75;;
52057;SDS011;38063;53.210;6.504;2024-02-26T06:30:33;6.38;;;2.88;;
52057;SDS011;38063;53.210;6.504;2024-02-26T06:32:59;3.05;;;2.60;;
52057;SDS011;38063;53.210;6.504;2024-02-26T06:35:25;6.70;;;2.90;;
52057;SDS011;38063;53.210;6.504;2024-02-26T06:37:51;4.90;;;2.88;;
52057;SDS011;38063;53.210;6.504;2024-02-26T06:40:18;5.43;;;3.13;;
52057;SDS011;38063;53.210;6.504;2024-02-26T06:42:44;4.10;;;2.63;;
52057;SDS011;38063;53.210;6.504;2024-02-26T06:45:10;5.35;;;2.67;;
52057;SDS011;38063;53.210;6.504;2024-02-26T06:47:35;4.13;;;2.65;;
52057;SDS011;38063;53.210;6.504;2024-02-26T06:50:01;3.05;;;2.50;;
52057;SDS011;38063;53.210;6.504;2024-02-26T06:52:27;3.97;;;2.55;;
52057;SDS011;38063;53.210;6.504;2024-02-26T06:54:53;5.78;;;2.92;;
52057;SDS011;38063;53.210;6.504;2024-02-26T06:57:19;9.85;;;3.40;;
52057;SDS011;38063;53.210;6.504;2024-02-26T06:59:45;7.65;;;3.80;;
52057;SDS011;38063;53.210;6.504;2024-02-26T07:02:12;7.40;;;4.13;;
52057;SDS011;38063;53.210;6.504;2024-02-26T07:04:38;10.65;;;4.07;;
52057;SDS011;38063;53.210;6.504;2024-02-26T07:07:04;6.45;;;3.45;;
52057;SDS011;38063;53.210;6.504;2024-02-26T07:09:30;7.03;;;3.25;;
52057;SDS011;38063;53.210;6.504;2024-02-26T07:11:55;8.43;;;3.58;;
52057;SDS011;38063;53.210;6.504;2024-02-26T07:14:22;12.35;;;3.50;;
52057;SDS011;38063;53.210;6.504;2024-02-26T07:16:49;6.25;;;2.67;;
52057;SDS011;38063;53.210;6.504;2024-02-26T07:19:15;5.05;;;3.05;;
52057;SDS011;38063;53.210;6.504;2024-02-26T07:21:41;6.07;;;3.60;;
52057;SDS011;38063;53.210;6.504;2024-02-26T07:24:06;10.95;;;3.50;;
52057;SDS011;38063;53.210;6.504;2024-02-26T07:26:32;3.55;;;2.75;;
52057;SDS011;38063;53.210;6.504;2024-02-26T07:28:58;5.55;;;2.38;;
52057;SDS011;38063;53.210;6.504;2024-02-26T07:31:23;4.22;;;3.00;;
52057;SDS011;38063;53.210;6.504;2024-02-26T07:33:49;5.47;;;2.80;;
52057;SDS011;38063;53.210;6.504;2024-02-26T07:36:15;4.95;;;2.95;;
52057;SDS011;38063;53.210;6.504;2024-02-26T07:38:40;7.95;;;3.05;;
52057;SDS011;38063;53.210;6.504;2024-02-26T07:41:06;4.57;;;2.70;;
52057;SDS011;38063;53.210;6.504;2024-02-26T07:43:31;9.15;;;3.05;;
52057;SDS011;38063;53.210;6.504;2024-02-26T07:45:57;4.70;;;2.40;;
52057;SDS011;38063;53.210;6.504;2024-02-26T07:48:23;5.75;;;2.72;;
52057;SDS011;38063;53.210;6.504;2024-02-26T07:50:49;4.53;;;2.35;;
52057;SDS011;38063;53.210;6.504;2024-02-26T07:53:14;7.07;;;2.22;;
52057;SDS011;38063;53.210;6.504;2024-02-26T07:55:40;3.17;;;2.10;;
52057;SDS011;38063;53.210;6.504;2024-02-26T07:58:06;3.30;;;2.00;;
52057;SDS011;38063;53.210;6.504;2024-02-26T08:00:31;4.35;;;2.60;;
52057;SDS011;38063;53.210;6.504;2024-02-26T08:02:57;4.28;;;2.03;;
52057;SDS011;38063;53.210;6.504;2024-02-26T08:05:23;3.03;;;1.90;;
52057;SDS011;38063;53.210;6.504;2024-02-26T08:07:49;4.35;;;1.95;;
52057;SDS011;38063;53.210;6.504;2024-02-26T08:10:15;2.53;;;1.77;;
52057;SDS011;38063;53.210;6.504;2024-02-26T08:12:41;4.07;;;1.98;;
52057;SDS011;38063;53.210;6.504;2024-02-26T08:15:07;3.53;;;1.92;;
52057;SDS011;38063;53.210;6.504;2024-02-26T08:17:33;3.45;;;1.90;;
52057;SDS011;38063;53.210;6.504;2024-02-26T08:19:59;3.22;;;1.95;;
52057;SDS011;38063;53.210;6.504;2024-02-26T08:22:25;4.32;;;2.08;;
52057;SDS011;38063;53.210;6.504;2024-02-26T08:24:51;3.05;;;1.85;;
52057;SDS011;38063;53.210;6.504;2024-02-26T08:27:16;4.47;;;1.80;;
52057;SDS011;38063;53.210;6.504;2024-02-26T08:29:42;5.20;;;1.92;;
52057;SDS011;38063;53.210;6.504;2024-02-26T08:32:08;2.50;;;1.83;;
52057;SDS011;38063;53.210;6.504;2024-02-26T08:34:34;2.83;;;1.77;;
52057;SDS011;38063;53.210;6.504;2024-02-26T08:36:59;2.85;;;1.30;;
52057;SDS011;38063;53.210;6.504;2024-02-26T08:39:25;3.42;;;1.42;;
52057;SDS011;38063;53.210;6.504;2024-02-26T08:41:51;4.53;;;1.40;;
52057;SDS011;38063;53.210;6.504;2024-02-26T08:44:17;2.40;;;1.25;;
52057;SDS011;38063;53.210;6.504;2024-02-26T08:46:42;3.63;;;1.10;;
52057;SDS011;38063;53.210;6.504;2024-02-26T08:49:09;1.58;;;1.35;;
52057;SDS011;38063;53.210;6.504;2024-02-26T08:51:34;2.30;;;1.40;;
52057;SDS011;38063;53.210;6.504;2024-02-26T08:54:00;3.33;;;1.60;;
52057;SDS011;38063;53.210;6.504;2024-02-26T08:56:25;2.58;;;1.65;;
52057;SDS011;38063;53.210;6.504;2024-02-26T08:58:52;4.38;;;1.75;;
52057;SDS011;38063;53.210;6.504;2024-02-26T09:01:19;5.55;;;1.90;;
52057;SDS011;38063;53.210;6.504;2024-02-26T09:03:45;2.17;;;1.60;;
52057;SDS011;38063;53.210;6.504;2024-02-26T09:06:11;2.45;;;1.77;;
52057;SDS011;38063;53.210;6.504;2024-02-26T09:08:39;2.33;;;1.75;;
52057;SDS011;38063;53.210;6.504;2024-02-26T09:11:05;2.00;;;1.75;;
52057;SDS011;38063;53.210;6.504;2024-02-26T09:13:30;3.15;;;1.60;;
52057;SDS011;38063;53.210;6.504;2024-02-26T09:15:56;3.10;;;1.90;;
52057;SDS011;38063;53.210;6.504;2024-02-26T09:18:22;4.65;;;2.03;;
52057;SDS011;38063;53.210;6.504;2024-02-26T09:20:47;2.13;;;1.70;;
52057;SDS011;38063;53.210;6.504;2024-02-26T09:23:13;3.72;;;1.73;;
52057;SDS011;38063;53.210;6.504;2024-02-26T09:25:38;4.38;;;1.95;;
52057;SDS011;38063;53.210;6.504;2024-02-26T09:28:04;2.47;;;1.67;;
52057;SDS011;38063;53.210;6.504;2024-02-26T09:30:30;4.28;;;1.90;;
52057;SDS011;38063;53.210;6.504;2024-02-26T09:32:56;5.43;;;2.33;;
52057;SDS011;38063;53.210;6.504;2024-02-26T09:35:22;2.42;;;1.88;;
52057;SDS011;38063;53.210;6.504;2024-02-26T09:37:48;2.80;;;2.33;;
52057;SDS011;38063;53.210;6.504;2024-02-26T09:40:14;3.20;;;2.30;;
52057;SDS011;38063;53.210;6.504;2024-02-26T09:42:44;7.40;;;2.38;;
52057;SDS011;38063;53.210;6.504;2024-02-26T09:45:12;4.55;;;2.30;;
52057;SDS011;38063;53.210;6.504;2024-02-26T09:47:44;5.53;;;2.88;;
52057;SDS011;38063;53.210;6.504;2024-02-26T09:50:12;4.78;;;2.97;;
52057;SDS011;38063;53.210;6.504;2024-02-26T09:52:40;4.57;;;2.55;;
52057;SDS011;38063;53.210;6.504;2024-02-26T09:55:07;5.93;;;2.38;;
52057;SDS011;38063;53.210;6.504;2024-02-26T09:57:37;5.32;;;2.17;;
52057;SDS011;38063;53.210;6.504;2024-02-26T10:00:03;4.55;;;2.30;;
52057;SDS011;38063;53.210;6.504;2024-02-26T10:02:33;3.72;;;2.30;;
52057;SDS011;38063;53.210;6.504;2024-02-26T10:05:03;6.00;;;2.10;;
52057;SDS011;38063;53.210;6.504;2024-02-26T10:07:32;3.42;;;1.88;;
52057;SDS011;38063;53.210;6.504;2024-02-26T10:09:58;3.45;;;2.33;;
52057;SDS011;38063;53.210;6.504;2024-02-26T10:12:24;4.47;;;1.88;;
52057;SDS011;38063;53.210;6.504;2024-02-26T10:14:53;3.47;;;1.90;;
52057;SDS011;38063;53.210;6.504;2024-02-26T10:17:19;3.22;;;1.63;;
52057;SDS011;38063;53.210;6.504;2024-02-26T10:19:45;3.95;;;1.60;;
52057;SDS011;38063;53.210;6.504;2024-02-26T10:22:11;2.63;;;1.60;;
52057;SDS011;38063;53.210;6.504;2024-02-26T10:24:36;3.95;;;1.50;;
52057;SDS011;38063;53.210;6.504;2024-02-26T10:27:02;2.85;;;1.48;;
52057;SDS011;38063;53.210;6.504;2024-02-26T10:29:28;2.53;;;1.60;;
52057;SDS011;38063;53.210;6.504;2024-02-26T10:31:54;5.82;;;1.65;;
52057;SDS011;38063;53.210;6.504;2024-02-26T10:34:20;3.45;;;1.50;;
52057;SDS011;38063;53.210;6.504;2024-02-26T10:36:46;2.40;;;1.33;;
52057;SDS011;38063;53.210;6.504;2024-02-26T10:39:12;2.92;;;1.35;;
52057;SDS011;38063;53.210;6.504;2024-02-26T10:41:41;2.50;;;1.50;;
52057;SDS011;38063;53.210;6.504;2024-02-26T10:44:11;1.50;;;1.00;;
52057;SDS011;38063;53.210;6.504;2024-02-26T10:46:38;2.13;;;1.30;;
52057;SDS011;38063;53.210;6.504;2024-02-26T10:49:12;3.35;;;1.33;;
52057;SDS011;38063;53.210;6.504;2024-02-26T10:51:40;3.40;;;1.70;;
52057;SDS011;38063;53.210;6.504;2024-02-26T10:54:09;1.92;;;1.25;;
52057;SDS011;38063;53.210;6.504;2024-02-26T10:56:41;2.60;;;1.40;;
52057;SDS011;38063;53.210;6.504;2024-02-26T10:59:09;2.35;;;1.25;;
52057;SDS011;38063;53.210;6.504;2024-02-26T11:01:35;3.15;;;1.52;;
52057;SDS011;38063;53.210;6.504;2024-02-26T11:04:05;4.57;;;1.80;;
52057;SDS011;38063;53.210;6.504;2024-02-26T11:06:33;2.13;;;1.38;;
52057;SDS011;38063;53.210;6.504;2024-02-26T11:09:00;4.47;;;1.50;;
52057;SDS011;38063;53.210;6.504;2024-02-26T11:11:27;2.40;;;1.70;;
52057;SDS011;38063;53.210;6.504;2024-02-26T11:13:55;3.50;;;1.65;;
52057;SDS011;38063;53.210;6.504;2024-02-26T11:16:21;3.33;;;1.50;;
52057;SDS011;38063;53.210;6.504;2024-02-26T11:18:47;4.75;;;1.85;;
52057;SDS011;38063;53.210;6.504;2024-02-26T11:21:17;3.75;;;1.90;;
52057;SDS011;38063;53.210;6.504;2024-02-26T11:23:47;5.95;;;2.10;;
52057;SDS011;38063;53.210;6.504;2024-02-26T11:26:13;2.80;;;1.95;;
52057;SDS011;38063;53.210;6.504;2024-02-26T11:28:41;2.67;;;1.77;;
52057;SDS011;38063;53.210;6.504;2024-02-26T11:31:07;3.63;;;2.20;;
52057;SDS011;38063;53.210;6.504;2024-02-26T11:33:34;5.22;;;2.40;;
52057;SDS011;38063;53.210;6.504;2024-02-26T11:36:01;4.15;;;2.10;;
52057;SDS011;38063;53.210;6.504;2024-02-26T11:38:32;3.05;;;2.22;;
52057;SDS011;38063;53.210;6.504;2024-02-26T11:40:58;6.25;;;2.63;;
52057;SDS011;38063;53.210;6.504;2024-02-26T11:51:55;5.95;;;2.72;;
52057;SDS011;38063;53.210;6.504;2024-02-26T11:57:28;4.63;;;3.00;;
52057;SDS011;38063;53.210;6.504;2024-02-26T11:59:54;4.80;;;2.30;;
52057;SDS011;38063;53.210;6.504;2024-02-26T12:02:38;5.38;;;2.85;;
52057;SDS011;38063;53.210;6.504;2024-02-26T12:05:16;6.68;;;3.13;;
52057;SDS011;38063;53.210;6.504;2024-02-26T12:07:45;4.78;;;3.08;;
52057;SDS011;38063;53.210;6.504;2024-02-26T12:10:14;5.90;;;3.35;;
52057;SDS011;38063;53.210;6.504;2024-02-26T12:12:41;5.20;;;3.15;;
52057;SDS011;38063;53.210;6.504;2024-02-26T12:15:07;5.68;;;3.25;;
52057;SDS011;38063;53.210;6.504;2024-02-26T12:17:34;7.70;;;3.90;;
52057;SDS011;38063;53.210;6.504;2024-02-26T12:20:12;5.95;;;3.90;;
52057;SDS011;38063;53.210;6.504;2024-02-26T12:22:42;10.45;;;5.03;;
52057;SDS011;38063;53.210;6.504;2024-02-26T12:25:10;7.53;;;3.70;;
52057;SDS011;38063;53.210;6.504;2024-02-26T12:27:36;7.68;;;4.85;;
52057;SDS011;38063;53.210;6.504;2024-02-26T12:30:04;5.95;;;4.03;;
52057;SDS011;38063;53.210;6.504;2024-02-26T12:32:31;5.90;;;4.00;;
52057;SDS011;38063;53.210;6.504;2024-02-26T12:34:57;8.30;;;4.53;;
52057;SDS011;38063;53.210;6.504;2024-02-26T12:37:25;9.45;;;4.72;;
52057;SDS011;38063;53.210;6.504;2024-02-26T12:39:52;6.63;;;4.03;;
52057;SDS011;38063;53.210;6.504;2024-02-26T12:42:18;5.20;;;3.63;;
52057;SDS011;38063;53.210;6.504;2024-02-26T12:44:47;8.48;;;4.25;;
52057;SDS011;38063;53.210;6.504;2024-02-26T12:47:12;6.55;;;3.55;;
52057;SDS011;38063;53.210;6.504;2024-02-26T12:49:46;5.15;;;3.55;;
52057;SDS011;38063;53.210;6.504;2024-02-26T12:52:13;8.02;;;3.75;;
52057;SDS011;38063;53.210;6.504;2024-02-26T12:54:39;7.10;;;4.35;;
52057;SDS011;38063;53.210;6.504;2024-02-26T12:57:07;15.07;;;6.03;;
52057;SDS011;38063;53.210;6.504;2024-02-26T12:59:34;6.07;;;4.15;;
52057;SDS011;38063;53.210;6.504;2024-02-26T13:02:01;8.80;;;4.72;;
52057;SDS011;38063;53.210;6.504;2024-02-26T13:04:29;8.23;;;4.35;;
52057;SDS011;38063;53.210;6.504;2024-02-26T13:06:55;8.20;;;4.47;;
52057;SDS011;38063;53.210;6.504;2024-02-26T13:09:26;6.68;;;4.57;;
52057;SDS011;38063;53.210;6.504;2024-02-26T13:11:55;8.45;;;4.85;;
52057;SDS011;38063;53.210;6.504;2024-02-26T13:14:21;10.98;;;4.30;;
52057;SDS011;38063;53.210;6.504;2024-02-26T13:16:56;7.00;;;3.90;;
52057;SDS011;38063;53.210;6.504;2024-02-26T13:21:48;7.10;;;3.87;;
52057;SDS011;38063;53.210;6.504;2024-02-26T13:24:14;7.05;;;3.90;;
52057;SDS011;38063;53.210;6.504;2024-02-26T13:26:40;9.57;;;4.57;;
52057;SDS011;38063;53.210;6.504;2024-02-26T13:29:06;8.65;;;4.60;;
52057;SDS011;38063;53.210;6.504;2024-02-26T13:31:32;6.82;;;4.53;;
52057;SDS011;38063;53.210;6.504;2024-02-26T13:34:05;10.10;;;5.03;;
52057;SDS011;38063;53.210;6.504;2024-02-26T13:36:30;9.35;;;4.47;;
52057;SDS011;38063;53.210;6.504;2024-02-26T13:38:56;8.38;;;4.65;;
52057;SDS011;38063;53.210;6.504;2024-02-26T13:41:22;9.30;;;4.53;;
52057;SDS011;38063;53.210;6.504;2024-02-26T13:43:48;8.57;;;5.20;;
52057;SDS011;38063;53.210;6.504;2024-02-26T13:46:14;7.50;;;4.78;;
52057;SDS011;38063;53.210;6.504;2024-02-26T13:48:41;10.20;;;4.63;;
52057;SDS011;38063;53.210;6.504;2024-02-26T13:51:07;9.20;;;4.60;;
52057;SDS011;38063;53.210;6.504;2024-02-26T13:53:32;8.35;;;4.93;;
52057;SDS011;38063;53.210;6.504;2024-02-26T13:55:58;9.98;;;4.93;;
52057;SDS011;38063;53.210;6.504;2024-02-26T13:58:26;7.50;;;4.95;;
52057;SDS011;38063;53.210;6.504;2024-02-26T14:00:52;8.70;;;4.60;;
52057;SDS011;38063;53.210;6.504;2024-02-26T14:03:19;10.02;;;5.10;;
52057;SDS011;38063;53.210;6.504;2024-02-26T14:05:45;7.82;;;5.00;;
52057;SDS011;38063;53.210;6.504;2024-02-26T14:08:11;11.90;;;5.25;;
52057;SDS011;38063;53.210;6.504;2024-02-26T14:10:36;7.35;;;4.93;;
52057;SDS011;38063;53.210;6.504;2024-02-26T14:13:02;10.57;;;5.55;;
52057;SDS011;38063;53.210;6.504;2024-02-26T14:15:28;9.27;;;5.47;;
52057;SDS011;38063;53.210;6.504;2024-02-26T14:17:54;7.88;;;5.13;;
52057;SDS011;38063;53.210;6.504;2024-02-26T14:20:23;8.38;;;5.35;;
52057;SDS011;38063;53.210;6.504;2024-02-26T14:22:50;9.93;;;4.78;;
52057;SDS011;38063;53.210;6.504;2024-02-26T14:25:18;8.10;;;5.07;;
52057;SDS011;38063;53.210;6.504;2024-02-26T14:27:47;8.35;;;4.93;;
52057;SDS011;38063;53.210;6.504;2024-02-26T14:30:13;10.38;;;5.00;;
52057;SDS011;38063;53.210;6.504;2024-02-26T14:32:40;11.18;;;5.20;;
52057;SDS011;38063;53.210;6.504;2024-02-26T14:35:06;8.52;;;5.25;;
52057;SDS011;38063;53.210;6.504;2024-02-26T14:37:32;11.35;;;6.10;;
52057;SDS011;38063;53.210;6.504;2024-02-26T14:39:58;9.23;;;5.57;;
52057;SDS011;38063;53.210;6.504;2024-02-26T14:42:24;8.98;;;5.47;;
52057;SDS011;38063;53.210;6.504;2024-02-26T14:44:49;12.27;;;5.20;;
52057;SDS011;38063;53.210;6.504;2024-02-26T14:47:16;11.10;;;5.13;;
52057;SDS011;38063;53.210;6.504;2024-02-26T14:49:42;8.63;;;4.38;;
52057;SDS011;38063;53.210;6.504;2024-02-26T14:52:08;9.48;;;5.00;;